createdAt,value
2018-07-22T00:01:32.102Z,9.50
2018-07-22T00:04:00.903Z,8.70
2018-07-22T00:06:29.701Z,9.70
2018-07-22T00:08:58.517Z,9.60
2018-07-22T00:11:27.359Z,8.70
2018-07-22T00:13:56.812Z,9.43
2018-07-22T00:16:26.253Z,8.97
2018-07-22T00:18:55.356Z,10.83
2018-07-22T00:21:24.309Z,10.50
2018-07-22T00:23:53.090Z,10.27
2018-07-22T00:26:21.912Z,10.80
2018-07-22T00:28:51.283Z,9.93
2018-07-22T00:31:20.183Z,9.50
2018-07-22T00:33:49.800Z,9.97
2018-07-22T00:36:19.192Z,10.17
2018-07-22T00:38:48.100Z,10.10
2018-07-22T00:41:16.804Z,11.47
2018-07-22T00:43:45.684Z,10.33
2018-07-22T00:46:14.512Z,10.90
2018-07-22T00:48:43.337Z,10.40
2018-07-22T00:51:12.329Z,11.00
2018-07-22T00:53:41.243Z,10.73
2018-07-22T00:56:09.979Z,10.33
2018-07-22T00:58:38.813Z,10.93
2018-07-22T01:01:08.538Z,9.90
2018-07-22T01:03:37.445Z,10.60
2018-07-22T01:06:06.402Z,11.47
2018-07-22T01:08:35.177Z,11.10
2018-07-22T01:11:04.129Z,10.90
2018-07-22T01:13:33.689Z,10.97
2018-07-22T01:16:02.313Z,10.70
2018-07-22T01:18:31.232Z,10.53
2018-07-22T01:21:00.067Z,10.60
2018-07-22T01:23:29.384Z,11.60
2018-07-22T01:25:58.123Z,11.30
2018-07-22T01:28:26.809Z,9.80
2018-07-22T01:30:55.654Z,11.50
2018-07-22T01:33:24.483Z,9.93
2018-07-22T01:35:53.532Z,10.10
2018-07-22T01:38:22.353Z,10.60
2018-07-22T01:40:51.062Z,9.97
2018-07-22T01:43:20.592Z,9.20
2018-07-22T01:45:49.398Z,9.27
2018-07-22T01:48:18.867Z,9.73
2018-07-22T01:50:47.552Z,9.47
2018-07-22T01:53:16.443Z,11.80
2018-07-22T01:55:45.294Z,10.20
2018-07-22T01:58:14.597Z,9.93
2018-07-22T02:00:43.473Z,10.30
2018-07-22T02:03:13.344Z,11.00
2018-07-22T02:05:42.293Z,9.70
2018-07-22T02:08:11.643Z,10.30
2018-07-22T02:10:40.643Z,10.80
2018-07-22T02:13:09.519Z,10.17
2018-07-22T02:15:38.782Z,10.13
2018-07-22T02:18:07.418Z,10.80
2018-07-22T02:20:36.242Z,10.47
2018-07-22T02:23:05.660Z,10.10
2018-07-22T02:25:35.346Z,9.60
2018-07-22T02:28:04.136Z,11.08
2018-07-22T02:30:32.739Z,9.35
2018-07-22T02:33:01.594Z,9.63
2018-07-22T02:35:30.833Z,9.93
2018-07-22T02:37:59.763Z,10.27
2018-07-22T02:40:28.495Z,9.43
2018-07-22T02:42:58.625Z,10.47
2018-07-22T02:45:27.981Z,11.63
2018-07-22T02:47:56.697Z,10.35
2018-07-22T02:50:27.172Z,10.30
2018-07-22T02:52:56.058Z,11.03
2018-07-22T02:55:25.649Z,10.43
2018-07-22T02:57:54.988Z,10.40
2018-07-22T03:00:23.677Z,10.10
2018-07-22T03:02:52.388Z,11.07
2018-07-22T03:05:21.495Z,10.85
2018-07-22T03:07:50.188Z,10.27
2018-07-22T03:10:19.149Z,10.87
2018-07-22T03:12:48.160Z,9.97
2018-07-22T03:15:17.253Z,9.23
2018-07-22T03:17:45.812Z,8.63
2018-07-22T03:20:14.870Z,10.10
2018-07-22T03:22:43.820Z,9.90
2018-07-22T03:25:13.502Z,10.33
2018-07-22T03:27:42.849Z,10.07
2018-07-22T03:30:11.612Z,11.00
2018-07-22T03:32:40.454Z,11.63
2018-07-22T03:35:09.373Z,11.13
2018-07-22T03:37:37.903Z,9.60
2018-07-22T03:40:06.839Z,11.30
2018-07-22T03:42:36.974Z,9.63
2018-07-22T03:45:05.914Z,10.20
2018-07-22T03:47:34.665Z,10.27
2018-07-22T03:50:03.715Z,10.93
2018-07-22T03:52:32.590Z,9.67
2018-07-22T03:55:02.132Z,10.32
2018-07-22T03:57:31.004Z,10.77
2018-07-22T03:59:59.628Z,10.40
2018-07-22T04:02:28.497Z,10.93
2018-07-22T04:04:57.344Z,10.00
2018-07-22T04:07:26.239Z,9.60
2018-07-22T04:09:54.927Z,10.07
2018-07-22T04:12:23.643Z,10.90
2018-07-22T04:14:52.609Z,10.13
2018-07-22T04:17:21.234Z,10.53
2018-07-22T04:19:50.148Z,10.10
2018-07-22T04:22:18.879Z,9.70
2018-07-22T04:24:47.504Z,9.90
2018-07-22T04:27:16.130Z,9.77
2018-07-22T04:29:44.884Z,10.00
2018-07-22T04:32:13.519Z,9.00
2018-07-22T04:34:42.245Z,9.57
2018-07-22T04:37:11.065Z,10.40
2018-07-22T04:39:40.218Z,8.78
2018-07-22T04:42:09.108Z,8.73
2018-07-22T04:44:37.750Z,9.63
2018-07-22T04:47:06.658Z,9.40
2018-07-22T04:49:36.265Z,9.53
2018-07-22T04:52:05.068Z,9.63
2018-07-22T04:54:35.723Z,9.60
2018-07-22T04:57:04.823Z,11.67
2018-07-22T04:59:34.150Z,11.57
2018-07-22T05:02:03.695Z,9.10
2018-07-22T05:04:32.488Z,9.90
2018-07-22T05:07:01.425Z,9.70
2018-07-22T05:09:30.113Z,9.40
2018-07-22T05:11:59.332Z,8.80
2018-07-22T05:14:28.130Z,9.43
2018-07-22T05:16:56.832Z,9.60
2018-07-22T05:19:25.540Z,9.70
2018-07-22T05:21:55.165Z,9.17
2018-07-22T05:24:24.361Z,9.10
2018-07-22T05:26:53.334Z,8.10
2018-07-22T05:29:22.008Z,8.03
2018-07-22T05:31:51.020Z,7.80
2018-07-22T05:34:19.937Z,9.13
2018-07-22T05:36:48.547Z,9.27
2018-07-22T05:39:17.871Z,7.10
2018-07-22T05:41:47.080Z,7.67
2018-07-22T05:44:15.878Z,7.00
2018-07-22T05:46:44.529Z,7.20
2018-07-22T05:49:13.279Z,7.87
2018-07-22T05:51:41.880Z,20.50
2018-07-22T05:54:10.561Z,7.50
2018-07-22T05:56:39.278Z,8.43
2018-07-22T05:59:08.499Z,6.97
2018-07-22T06:01:37.166Z,7.23
2018-07-22T06:04:06.041Z,7.27
2018-07-22T06:06:35.108Z,7.73
2018-07-22T06:09:04.671Z,8.10
2018-07-22T06:11:33.668Z,6.90
2018-07-22T06:14:02.348Z,8.20
2018-07-22T06:16:31.263Z,7.47
2018-07-22T06:19:00.103Z,7.47
2018-07-22T06:21:28.915Z,7.37
2018-07-22T06:23:58.061Z,8.20
2018-07-22T06:26:26.635Z,7.03
2018-07-22T06:28:55.305Z,8.10
2018-07-22T06:31:24.088Z,6.93
2018-07-22T06:33:52.844Z,8.03
2018-07-22T06:36:21.795Z,7.00
2018-07-22T06:38:50.640Z,7.10
2018-07-22T06:41:19.521Z,6.63
2018-07-22T06:43:48.401Z,7.03
2018-07-22T06:46:17.974Z,7.13
2018-07-22T06:48:47.101Z,6.37
2018-07-22T06:51:15.988Z,6.53
2018-07-22T06:53:44.722Z,7.03
2018-07-22T06:56:13.798Z,7.10
2018-07-22T06:58:42.801Z,6.00
2018-07-22T07:01:12.253Z,6.47
2018-07-22T07:03:41.653Z,6.43
2018-07-22T07:06:10.651Z,6.17
2018-07-22T07:08:40.316Z,5.93
2018-07-22T07:11:09.055Z,5.90
2018-07-22T07:13:37.776Z,6.33
2018-07-22T07:16:06.726Z,6.50
2018-07-22T07:18:35.549Z,5.73
2018-07-22T07:21:05.121Z,5.93
2018-07-22T07:23:34.049Z,5.87
2018-07-22T07:26:02.778Z,6.13
2018-07-22T07:28:31.502Z,5.47
2018-07-22T07:31:00.980Z,6.37
2018-07-22T07:33:29.831Z,5.97
2018-07-22T07:35:58.574Z,6.00
2018-07-22T07:38:27.220Z,5.43
2018-07-22T07:40:55.906Z,6.93
2018-07-22T07:43:24.773Z,6.50
2018-07-22T07:45:53.444Z,6.43
2018-07-22T07:48:22.696Z,5.60
2018-07-22T07:50:52.194Z,5.90
2018-07-22T07:53:20.990Z,5.57
2018-07-22T07:55:49.695Z,5.60
2018-07-22T07:58:18.384Z,5.43
2018-07-22T08:00:47.064Z,5.70
2018-07-22T08:03:15.746Z,6.00
2018-07-22T08:05:44.981Z,5.78
2018-07-22T08:08:13.647Z,6.10
2018-07-22T08:10:42.215Z,5.70
2018-07-22T08:13:10.986Z,5.20
2018-07-22T08:15:40.184Z,5.43
2018-07-22T08:18:09.130Z,5.40
2018-07-22T08:20:38.646Z,6.40
2018-07-22T08:23:07.941Z,7.20
2018-07-22T08:25:36.632Z,5.83
2018-07-22T08:28:05.250Z,5.00
2018-07-22T08:30:34.014Z,6.50
2018-07-22T08:33:02.806Z,7.17
2018-07-22T08:35:31.432Z,7.53
2018-07-22T08:38:00.337Z,8.10
2018-07-22T08:40:29.211Z,9.37
2018-07-22T08:42:58.003Z,8.10
2018-07-22T08:45:26.905Z,8.20
2018-07-22T08:47:55.607Z,8.80
2018-07-22T08:50:24.411Z,8.17
2018-07-22T08:52:53.192Z,9.90
2018-07-22T08:55:21.857Z,10.40
2018-07-22T08:57:51.157Z,9.97
2018-07-22T09:00:27.285Z,9.60
2018-07-22T09:02:56.238Z,9.33
2018-07-22T09:05:25.410Z,9.50
2018-07-22T09:07:54.081Z,9.40
2018-07-22T09:10:22.735Z,10.17
2018-07-22T09:12:51.462Z,10.30
2018-07-22T09:15:20.167Z,9.53
2018-07-22T09:17:48.932Z,8.78
2018-07-22T09:20:18.082Z,9.80
2018-07-22T09:22:47.337Z,9.43
2018-07-22T09:25:16.120Z,8.63
2018-07-22T09:27:45.482Z,9.10
2018-07-22T09:30:14.992Z,9.47
2018-07-22T09:32:43.868Z,9.17
2018-07-22T09:35:12.573Z,9.00
2018-07-22T09:37:41.436Z,9.23
2018-07-22T09:40:10.254Z,9.70
2018-07-22T09:42:39.079Z,9.93
2018-07-22T09:45:08.402Z,9.17
2018-07-22T09:47:37.131Z,9.00
2018-07-22T09:50:05.860Z,7.75
2018-07-22T09:52:34.457Z,7.03
2018-07-22T09:55:03.230Z,7.50
2018-07-22T09:57:32.558Z,8.20
2018-07-22T10:00:01.436Z,8.40
2018-07-22T10:02:30.043Z,7.27
2018-07-22T10:04:59.077Z,7.23
2018-07-22T10:07:27.755Z,8.07
2018-07-22T10:09:56.541Z,8.67
2018-07-22T10:12:25.220Z,7.50
2018-07-22T10:14:54.058Z,9.60
2018-07-22T10:17:22.731Z,8.67
2018-07-22T10:19:51.431Z,9.30
2018-07-22T10:22:20.135Z,8.83
2018-07-22T10:24:48.960Z,8.13
2018-07-22T10:27:18.346Z,9.25
2018-07-22T10:29:47.373Z,9.30
2018-07-22T10:32:16.722Z,8.97
2018-07-22T10:34:45.637Z,8.87
2018-07-22T10:37:14.244Z,9.20
2018-07-22T10:39:43.447Z,9.30
2018-07-22T10:42:12.107Z,8.47
2018-07-22T10:44:40.807Z,8.80
2018-07-22T10:47:10.278Z,9.40
2018-07-22T10:49:39.006Z,9.33
2018-07-22T10:52:07.737Z,8.30
2018-07-22T10:54:37.068Z,8.93
2018-07-22T10:57:06.110Z,8.95
2018-07-22T10:59:34.901Z,8.90
2018-07-22T11:02:03.511Z,8.50
2018-07-22T11:04:32.891Z,9.23
2018-07-22T11:07:01.975Z,9.50
2018-07-22T11:09:30.727Z,9.10
2018-07-22T11:11:59.737Z,8.77
2018-07-22T11:14:28.872Z,8.87
2018-07-22T11:16:57.925Z,9.07
2018-07-22T11:19:26.640Z,9.57
2018-07-22T11:21:55.297Z,9.80
2018-07-22T11:24:24.199Z,12.53
2018-07-22T11:26:53.845Z,9.00
2018-07-22T11:29:22.960Z,7.63
2018-07-22T11:31:52.001Z,8.70
2018-07-22T11:34:21.219Z,8.67
2018-07-22T11:36:50.201Z,9.57
2018-07-22T11:39:20.031Z,8.65
2018-07-22T11:41:49.181Z,9.83
2018-07-22T11:44:18.262Z,8.80
2018-07-22T11:46:48.094Z,8.50
2018-07-22T11:49:19.026Z,9.03
2018-07-22T11:51:48.027Z,8.65
2018-07-22T11:54:17.155Z,9.03
2018-07-22T11:56:47.888Z,8.30
2018-07-22T11:59:17.826Z,9.20
2018-07-22T12:01:46.739Z,8.33
2018-07-22T12:04:15.552Z,8.83
2018-07-22T12:06:45.090Z,9.17
2018-07-22T12:09:14.022Z,9.20
2018-07-22T12:11:42.852Z,8.03
2018-07-22T12:14:12.037Z,8.80
2018-07-22T12:16:41.182Z,9.30
2018-07-22T12:19:09.985Z,8.37
2018-07-22T12:21:38.630Z,8.80
2018-07-22T12:24:07.562Z,9.27
2018-07-22T12:26:37.585Z,9.03
2018-07-22T12:29:07.248Z,9.67
2018-07-22T12:31:36.230Z,9.63
2018-07-22T12:34:05.217Z,9.27
2018-07-22T12:36:35.165Z,9.63
2018-07-22T12:39:06.182Z,10.83
2018-07-22T12:41:35.401Z,8.83
2018-07-22T12:44:04.550Z,9.00
2018-07-22T12:46:33.891Z,9.60
2018-07-22T12:49:02.986Z,9.43
2018-07-22T12:51:32.056Z,17.50
2018-07-22T12:54:00.835Z,10.73
2018-07-22T12:56:29.722Z,9.73
2018-07-22T12:58:58.776Z,9.50
2018-07-22T13:01:27.931Z,9.20
2018-07-22T13:03:56.830Z,8.90
2018-07-22T13:06:26.057Z,8.13
2018-07-22T13:08:55.331Z,9.03
2018-07-22T13:11:23.991Z,9.30
2018-07-22T13:13:53.197Z,8.83
2018-07-22T13:16:22.493Z,9.13
2018-07-22T13:18:51.722Z,9.10
2018-07-22T13:21:20.903Z,7.50
2018-07-22T13:23:50.001Z,7.73
2018-07-22T13:26:19.780Z,8.90
2018-07-22T13:28:48.556Z,7.70
2018-07-22T13:31:17.798Z,8.00
2018-07-22T13:33:46.485Z,7.90
2018-07-22T13:36:15.353Z,7.50
2018-07-22T13:38:44.368Z,8.17
2018-07-22T13:41:13.482Z,7.60
2018-07-22T13:43:42.428Z,9.83
2018-07-22T13:46:12.477Z,11.20
2018-07-22T13:48:41.457Z,7.33
2018-07-22T13:51:10.493Z,6.10
2018-07-22T13:53:40.781Z,7.70
2018-07-22T13:56:09.596Z,7.73
2018-07-22T13:58:38.419Z,7.13
2018-07-22T14:01:07.585Z,6.80
2018-07-22T14:03:36.471Z,6.93
2018-07-22T14:06:05.448Z,7.87
2018-07-22T14:08:35.045Z,7.80
2018-07-22T14:11:04.246Z,7.50
2018-07-22T14:13:33.143Z,7.53
2018-07-22T14:16:03.001Z,10.03
2018-07-22T14:18:31.901Z,10.30
2018-07-22T14:21:01.166Z,13.00
2018-07-22T14:23:30.441Z,10.80
2018-07-22T14:25:59.433Z,13.10
2018-07-22T14:28:28.230Z,15.30
2018-07-22T14:30:57.150Z,20.13
2018-07-22T14:33:26.346Z,14.20
2018-07-22T14:35:55.140Z,14.47
2018-07-22T14:38:24.863Z,12.50
2018-07-22T14:40:54.132Z,14.63
2018-07-22T14:43:23.259Z,14.10
2018-07-22T14:45:53.219Z,13.30
2018-07-22T14:48:22.774Z,13.97
2018-07-22T14:50:51.896Z,16.30
2018-07-22T14:55:50.496Z,9.57
2018-07-22T14:58:19.548Z,9.60
2018-07-22T15:00:48.818Z,10.20
2018-07-22T15:03:17.986Z,9.80
2018-07-22T15:05:47.176Z,10.43
2018-07-22T15:08:16.923Z,9.67
2018-07-22T15:10:45.756Z,10.38
2018-07-22T15:13:14.906Z,11.03
2018-07-22T15:15:44.170Z,10.07
2018-07-22T15:18:13.097Z,11.00
2018-07-22T15:20:42.505Z,10.13
2018-07-22T15:23:11.360Z,9.47
2018-07-22T15:25:40.188Z,9.53
2018-07-22T15:28:08.847Z,9.87
2018-07-22T15:30:37.622Z,8.93
2018-07-22T15:33:06.709Z,8.67
2018-07-22T15:35:35.606Z,8.97
2018-07-22T15:38:04.466Z,8.50
2018-07-22T15:40:33.386Z,7.97
2018-07-22T15:43:02.112Z,7.30
2018-07-22T15:45:30.993Z,7.33
2018-07-22T15:48:00.935Z,7.60
2018-07-22T15:50:30.057Z,7.27
2018-07-22T15:52:59.150Z,6.67
2018-07-22T15:55:28.116Z,7.10
2018-07-22T15:57:57.047Z,6.30
2018-07-22T16:00:27.768Z,6.83
2018-07-22T16:02:57.177Z,8.00
2018-07-22T16:05:25.923Z,7.70
2018-07-22T16:07:54.763Z,7.70
2018-07-22T16:10:23.988Z,7.97
2018-07-22T16:12:53.098Z,7.37
2018-07-22T16:15:23.462Z,8.15
2018-07-22T16:17:52.717Z,7.70
2018-07-22T16:20:21.555Z,8.70
2018-07-22T16:22:51.272Z,9.13
2018-07-22T16:25:20.276Z,8.40
2018-07-22T16:27:49.441Z,8.50
2018-07-22T16:30:18.865Z,9.57
2018-07-22T16:32:47.857Z,9.07
2018-07-22T16:35:16.620Z,8.57
2018-07-22T16:37:45.556Z,9.50
2018-07-22T16:40:14.394Z,9.57
2018-07-22T16:42:43.210Z,9.83
2018-07-22T16:45:12.289Z,9.40
2018-07-22T16:47:41.062Z,10.60
2018-07-22T16:50:09.777Z,10.17
2018-07-22T16:52:38.816Z,10.63
2018-07-22T16:55:08.059Z,10.00
2018-07-22T16:57:37.369Z,10.10
2018-07-22T17:00:06.647Z,9.50
2018-07-22T17:02:35.841Z,10.33
2018-07-22T17:05:04.916Z,10.20
2018-07-22T17:07:34.528Z,10.07
2018-07-22T17:10:03.421Z,9.87
2018-07-22T17:12:32.622Z,9.77
2018-07-22T17:15:02.052Z,9.83
2018-07-22T17:17:30.730Z,10.33
2018-07-22T17:19:59.612Z,11.57
2018-07-22T17:22:28.420Z,11.83
2018-07-22T17:24:57.936Z,11.00
2018-07-22T17:27:26.983Z,11.30
2018-07-22T17:29:56.445Z,11.93
2018-07-22T17:32:26.507Z,10.83
2018-07-22T17:34:55.221Z,10.30
2018-07-22T17:37:24.191Z,10.30
2018-07-22T17:39:53.182Z,9.40
2018-07-22T17:42:22.232Z,9.78
2018-07-22T17:44:51.178Z,9.97
2018-07-22T17:47:20.756Z,9.50
2018-07-22T17:49:49.687Z,9.40
2018-07-22T17:52:18.447Z,9.10
2018-07-22T17:54:47.344Z,9.87
2018-07-22T17:57:16.213Z,8.87
2018-07-22T17:59:44.924Z,9.97
2018-07-22T18:02:13.823Z,9.00
2018-07-22T18:04:42.735Z,8.63
2018-07-22T18:07:11.603Z,8.63
2018-07-22T18:09:40.548Z,8.80
2018-07-22T18:12:09.320Z,9.03
2018-07-22T18:14:38.167Z,9.30
2018-07-22T18:17:07.490Z,9.77
2018-07-22T18:19:36.688Z,9.37
2018-07-22T18:22:06.538Z,9.43
2018-07-22T18:24:36.522Z,10.37
2018-07-22T18:27:05.503Z,10.47
2018-07-22T18:29:35.032Z,10.33
2018-07-22T18:32:04.334Z,11.22
2018-07-22T18:34:33.449Z,10.20
2018-07-22T18:37:02.648Z,10.27
2018-07-22T18:39:31.737Z,10.57
2018-07-22T18:42:01.049Z,9.60
2018-07-22T18:44:30.280Z,10.80
2018-07-22T18:46:59.497Z,10.23
2018-07-22T18:49:28.614Z,10.03
2018-07-22T18:51:57.879Z,10.17
2018-07-22T18:54:27.312Z,9.80
2018-07-22T18:56:57.492Z,10.37
2018-07-22T18:59:26.672Z,9.40
2018-07-22T19:01:56.164Z,10.00
2018-07-22T19:04:25.385Z,9.00
2018-07-22T19:06:54.579Z,10.37
2018-07-22T19:09:23.883Z,10.47
2018-07-22T19:11:53.389Z,35.07
2018-07-22T19:14:22.940Z,11.47
2018-07-22T19:16:52.384Z,9.80
2018-07-22T19:19:22.104Z,10.13
2018-07-22T19:21:51.623Z,10.07
2018-07-22T19:24:20.780Z,10.63
2018-07-22T19:26:49.897Z,11.60
2018-07-22T19:29:19.118Z,11.10
2018-07-22T19:31:48.845Z,10.93
2018-07-22T19:34:18.789Z,11.90
2018-07-22T19:36:49.555Z,11.00
2018-07-22T19:39:18.829Z,12.33
2018-07-22T19:41:48.048Z,11.03
2018-07-22T19:44:17.444Z,11.20
2018-07-22T19:46:46.753Z,10.70
2018-07-22T19:49:16.124Z,11.50
2018-07-22T19:51:45.515Z,11.07
2018-07-22T19:54:14.962Z,12.40
2018-07-22T19:56:44.133Z,12.70
2018-07-22T19:59:13.248Z,11.23
2018-07-22T20:01:43.687Z,9.53
2018-07-22T20:04:14.209Z,10.67
2018-07-22T20:06:44.299Z,11.07
2018-07-22T20:09:14.447Z,11.10
2018-07-22T20:11:44.092Z,10.57
2018-07-22T20:14:13.436Z,10.10
2018-07-22T20:16:42.758Z,10.32
2018-07-22T20:19:12.567Z,10.87
2018-07-22T20:21:41.769Z,11.80
2018-07-22T20:24:11.017Z,11.55
2018-07-22T20:26:40.883Z,10.40
2018-07-22T20:29:10.114Z,11.13
2018-07-22T20:31:39.218Z,9.17
2018-07-22T20:34:08.351Z,9.20
2018-07-22T20:36:37.468Z,10.17
2018-07-22T20:39:10.272Z,8.87
2018-07-22T20:41:40.543Z,9.75
2018-07-22T20:44:09.637Z,10.20
2018-07-22T20:46:38.659Z,9.10
2018-07-22T20:49:07.457Z,10.20
2018-07-22T20:51:36.287Z,8.53
2018-07-22T20:54:05.214Z,9.40
2018-07-22T20:56:34.141Z,9.20
2018-07-22T20:59:03.019Z,9.97
2018-07-22T21:01:31.980Z,9.80
2018-07-22T21:04:00.928Z,9.53
2018-07-22T21:06:30.267Z,10.20
2018-07-22T21:08:59.322Z,8.45
2018-07-22T21:11:38.980Z,9.67
2018-07-22T21:14:07.803Z,10.00
2018-07-22T21:16:36.797Z,11.10
2018-07-22T21:19:06.096Z,9.83
2018-07-22T21:21:35.394Z,10.35
2018-07-22T21:24:04.230Z,11.10
2018-07-22T21:26:32.874Z,11.10
2018-07-22T21:29:01.671Z,12.00
2018-07-22T21:31:30.496Z,10.50
2018-07-22T21:33:59.281Z,12.27
2018-07-22T21:36:28.730Z,11.50
2018-07-22T21:38:57.360Z,12.77
2018-07-22T21:41:26.072Z,11.93
2018-07-22T21:43:55.501Z,11.80
2018-07-22T21:46:24.483Z,13.70
2018-07-22T21:48:53.770Z,13.50
2018-07-22T21:51:22.511Z,13.30
2018-07-22T21:53:51.193Z,14.23
2018-07-22T21:56:20.006Z,14.80
2018-07-22T21:58:48.671Z,14.70
2018-07-22T22:04:32.085Z,14.10
2018-07-22T22:07:00.870Z,13.93
2018-07-22T22:09:29.686Z,16.03
2018-07-22T22:11:58.716Z,16.85
2018-07-22T22:14:27.928Z,15.80
2018-07-22T22:16:57.282Z,14.93
2018-07-22T22:19:26.226Z,16.30
2018-07-22T22:21:55.106Z,16.17
2018-07-22T22:24:23.995Z,16.70
2018-07-22T22:26:54.223Z,16.90
2018-07-22T22:29:23.169Z,16.40
2018-07-22T22:31:52.069Z,16.50
2018-07-22T22:34:20.705Z,18.07
2018-07-22T22:36:49.684Z,17.23
2018-07-22T22:39:19.181Z,16.17
2018-07-22T22:41:48.091Z,16.30
2018-07-22T22:44:16.795Z,16.57
2018-07-22T22:46:45.460Z,16.48
2018-07-22T22:49:14.113Z,15.73
2018-07-22T22:51:42.874Z,14.60
2018-07-22T22:54:11.681Z,16.00
2018-07-22T22:56:40.473Z,17.30
2018-07-22T22:59:16.965Z,15.80
2018-07-22T23:01:46.069Z,16.37
2018-07-22T23:04:15.354Z,16.33
2018-07-22T23:06:44.159Z,15.53
2018-07-22T23:09:14.590Z,15.50
2018-07-22T23:11:43.904Z,16.42
2018-07-22T23:14:12.789Z,16.50
2018-07-22T23:16:41.699Z,14.67
2018-07-22T23:19:10.533Z,15.47
2018-07-22T23:21:39.423Z,15.03
2018-07-22T23:24:08.189Z,15.15
2018-07-22T23:26:37.599Z,14.47
2018-07-22T23:29:06.155Z,14.50
2018-07-22T23:31:35.740Z,14.50
2018-07-22T23:34:04.381Z,13.60
2018-07-22T23:36:33.219Z,14.83
2018-07-22T23:39:02.017Z,13.50
2018-07-22T23:41:30.686Z,12.63
2018-07-22T23:43:59.598Z,13.33
2018-07-22T23:46:29.199Z,13.50
2018-07-22T23:48:57.930Z,12.83
2018-07-22T23:51:26.531Z,13.10
2018-07-22T23:53:55.514Z,12.90
2018-07-22T23:56:24.213Z,10.80
2018-07-22T23:58:52.870Z,12.23
